Strava

2014 Porlock Toll Road Hill Climb Course

Porlock, United Kingdom
  • Distance
    6.7 km
  • Elevation
    350 m
  • Grade
    5%

Overall Leaderboard

Speed Power
VAM
Time
Tejvan P. 1 Tejvan P. 28.6km/h 364 Powermeter 1,490.2 14:06
2 Dan Evans 27.9km/h 443 Powermeter 1,454.1 14:27
3 Ed L. 27.6km/h 396 Powermeter 1,435.9 14:38
4 Charlie M. 26.8km/h 369 Powermeter 1,394.6 15:04
5 Ben D. 26.2km/h 409 1,361.5 15:26
6 Tom B. 26.0km/h 462 Powermeter 1,355.6 15:30
7 Dicky B. 25.7km/h 373 1,338.3 15:42
8 Carlo Fino 25.6km/h 371 Powermeter 1,334.1 15:45
9 ashley towey 25.4km/h 169 Powermeter 1,320.1 15:55
10 Blake P. 25.3km/h 369 1,317.4 15:57

Women's Leaderboard

Speed Power
VAM
Time
Maryka S. 1 Maryka S. 22.9km/h 262 Powermeter 1,191.6 17:38
2 Lizzy Banks 22.0km/h 298 Powermeter 1,144.0 18:22
3 Joanne J. 21.5km/h 262 Powermeter 1,116.7 18:49
4 Jessica Evans 20.7km/h 245 1,078.5 19:29
5 Sophie S. 20.5km/h 256 1,064.8 19:44
6 josephine gilbert 20.1km/h 220 Powermeter 1,047.1 20:04
7 Emma C. 19.6km/h 284 Powermeter 1,022.5 20:33
8 Catherine H. 19.3km/h 216 1,007.0 20:52
9 Julie M. 19.2km/h 241 998.2 21:03
9 Alice L. 19.2km/h 281 Powermeter 998.2 21:03